createdAt,value
2019-02-21T00:02:13.180Z,51.80
2019-02-21T00:04:41.147Z,51.27
2019-02-21T00:07:08.743Z,51.47
2019-02-21T00:09:36.374Z,55.87
2019-02-21T00:12:04.263Z,63.80
2019-02-21T00:14:32.064Z,55.83
2019-02-21T00:17:00.174Z,63.27
2019-02-21T00:19:28.351Z,60.37
2019-02-21T00:21:55.872Z,59.27
2019-02-21T00:24:23.805Z,62.23
2019-02-21T00:26:52.030Z,62.40
2019-02-21T00:29:20.235Z,60.63
2019-02-21T00:31:49.026Z,59.63
2019-02-21T00:34:17.175Z,62.00
2019-02-21T00:36:45.162Z,56.23
2019-02-21T00:39:12.778Z,56.90
2019-02-21T00:41:40.404Z,54.23
2019-02-21T00:44:08.028Z,57.80
2019-02-21T00:46:35.654Z,61.90
2019-02-21T00:49:03.246Z,55.97
2019-02-21T00:51:30.823Z,56.07
2019-02-21T00:53:58.681Z,58.07
2019-02-21T00:56:26.303Z,59.70
2019-02-21T00:58:54.293Z,62.53
2019-02-21T01:01:22.306Z,59.10
2019-02-21T01:03:49.876Z,61.67
2019-02-21T01:06:17.405Z,65.23
2019-02-21T01:08:46.702Z,66.43
2019-02-21T01:11:14.641Z,63.80
2019-02-21T01:13:42.240Z,62.10
2019-02-21T01:16:09.894Z,63.87
2019-02-21T01:18:37.513Z,65.50
2019-02-21T01:21:05.204Z,60.90
2019-02-21T01:23:32.827Z,60.27
2019-02-21T01:26:00.406Z,59.43
2019-02-21T01:28:27.962Z,63.17
2019-02-21T01:30:57.208Z,55.13
2019-02-21T01:33:26.084Z,55.33
2019-02-21T01:35:57.112Z,56.03
2019-02-21T01:38:25.053Z,57.00
2019-02-21T01:40:52.819Z,44.77
2019-02-21T01:43:49.262Z,45.00
2019-02-21T01:46:16.925Z,46.57
2019-02-21T01:48:44.550Z,43.30
2019-02-21T01:51:12.263Z,46.47
2019-02-21T01:53:40.210Z,56.70
2019-02-21T01:56:07.791Z,56.83
2019-02-21T01:58:35.430Z,61.93
2019-02-21T02:01:08.439Z,72.63
2019-02-21T02:03:32.668Z,72.97
2019-02-21T02:06:00.300Z,62.37
2019-02-21T02:08:28.233Z,60.70
2019-02-21T02:10:55.847Z,59.60
2019-02-21T02:13:24.821Z,54.63
2019-02-21T02:15:53.155Z,57.17
2019-02-21T02:18:20.740Z,53.40
2019-02-21T02:20:48.604Z,55.53
2019-02-21T02:23:16.218Z,56.43
2019-02-21T02:25:43.738Z,51.60
2019-02-21T02:28:11.262Z,52.40
2019-02-21T02:30:38.827Z,59.97
2019-02-21T02:33:06.434Z,51.40
2019-02-21T02:35:34.753Z,55.47
2019-02-21T02:38:02.725Z,60.07
2019-02-21T02:40:30.306Z,53.40
2019-02-21T02:42:57.853Z,57.13
2019-02-21T02:45:25.486Z,45.07
2019-02-21T02:47:53.294Z,50.30
2019-02-21T02:50:21.271Z,52.53
2019-02-21T02:52:48.854Z,46.30
2019-02-21T02:55:36.317Z,46.53
2019-02-21T02:58:06.398Z,46.73
2019-02-21T03:00:33.473Z,48.07
2019-02-21T03:03:01.424Z,45.97
2019-02-21T03:05:28.992Z,50.43
2019-02-21T03:07:56.598Z,46.57
2019-02-21T03:10:28.784Z,50.07
2019-02-21T03:12:56.386Z,55.23
2019-02-21T03:15:23.974Z,48.33
2019-02-21T03:17:51.472Z,52.40
2019-02-21T03:20:19.088Z,46.47
2019-02-21T03:22:47.012Z,41.97
2019-02-21T03:25:14.638Z,44.90
2019-02-21T03:27:42.224Z,44.10
2019-02-21T03:30:12.083Z,50.73
2019-02-21T03:32:39.699Z,51.77
2019-02-21T03:35:07.746Z,45.00
2019-02-21T03:37:35.350Z,44.97
2019-02-21T03:40:04.061Z,47.03
2019-02-21T03:42:31.635Z,51.37
2019-02-21T03:44:59.167Z,46.60
2019-02-21T03:47:26.770Z,49.23
2019-02-21T03:49:54.404Z,48.97
2019-02-21T03:52:22.292Z,52.00
2019-02-21T03:54:49.852Z,51.00
2019-02-21T03:57:17.401Z,54.20
2019-02-21T03:59:45.050Z,51.73
2019-02-21T04:02:12.635Z,48.47
2019-02-21T04:04:40.284Z,51.57
2019-02-21T04:07:10.092Z,58.80
2019-02-21T04:09:37.590Z,53.10
2019-02-21T04:12:05.377Z,62.97
2019-02-21T04:14:33.356Z,58.37
2019-02-21T04:17:00.968Z,54.27
2019-02-21T04:19:28.789Z,60.50
2019-02-21T04:21:56.406Z,61.90
2019-02-21T04:24:24.026Z,62.03
2019-02-21T04:26:51.675Z,61.23
2019-02-21T04:29:19.633Z,63.20
2019-02-21T04:31:47.187Z,63.30
2019-02-21T04:34:14.787Z,67.97
2019-02-21T04:36:42.441Z,71.07
2019-02-21T04:39:10.049Z,67.67
2019-02-21T04:41:37.634Z,68.77
2019-02-21T04:44:05.620Z,75.73
2019-02-21T04:46:33.567Z,72.63
2019-02-21T04:49:01.058Z,63.47
2019-02-21T04:51:28.690Z,66.37
2019-02-21T04:53:56.324Z,67.83
2019-02-21T04:56:23.930Z,67.63
2019-02-21T04:58:51.891Z,84.77
2019-02-21T05:01:19.535Z,85.33
2019-02-21T05:03:47.175Z,82.97
2019-02-21T05:06:14.763Z,88.37
2019-02-21T05:08:42.383Z,87.00
2019-02-21T05:11:10.296Z,92.63
2019-02-21T05:13:37.933Z,93.40
2019-02-21T05:16:05.512Z,87.33
2019-02-21T05:18:33.147Z,81.03
2019-02-21T05:21:01.031Z,94.13
2019-02-21T05:23:28.573Z,91.93
2019-02-21T05:25:56.765Z,91.83
2019-02-21T05:28:29.557Z,104.33
2019-02-21T05:31:01.471Z,87.67
2019-02-21T05:33:54.799Z,95.50
2019-02-21T05:36:41.917Z,98.07
2019-02-21T05:39:34.872Z,97.77
2019-02-21T05:42:11.638Z,108.53
2019-02-21T05:44:44.190Z,124.30
2019-02-21T05:47:31.436Z,103.13
2019-02-21T05:50:21.667Z,101.87
2019-02-21T05:53:17.866Z,116.77
2019-02-21T05:56:00.145Z,121.83
2019-02-21T05:58:50.344Z,144.80
2019-02-21T06:01:46.291Z,135.00
2019-02-21T06:04:41.809Z,118.27
2019-02-21T06:07:26.861Z,114.97
2019-02-21T06:10:07.813Z,114.10
2019-02-21T06:12:50.936Z,108.20
2019-02-21T06:15:41.339Z,101.53
2019-02-21T06:18:29.177Z,96.67
2019-02-21T06:21:14.656Z,104.23
2019-02-21T06:23:58.681Z,96.93
2019-02-21T06:26:43.142Z,102.07
2019-02-21T06:29:27.515Z,102.17
2019-02-21T06:31:55.124Z,102.00
2019-02-21T06:34:22.744Z,105.90
2019-02-21T06:36:50.579Z,97.30
2019-02-21T06:39:18.207Z,97.80
2019-02-21T06:41:45.809Z,104.83
2019-02-21T06:44:13.714Z,86.50
2019-02-21T06:46:41.239Z,100.53
2019-02-21T06:49:08.843Z,100.20
2019-02-21T06:51:36.467Z,99.57
2019-02-21T06:54:04.319Z,96.77
2019-02-21T06:56:32.072Z,94.63
2019-02-21T06:58:59.674Z,100.67
2019-02-21T07:01:29.538Z,104.40
2019-02-21T07:03:56.982Z,101.93
2019-02-21T07:06:31.921Z,104.03
2019-02-21T07:08:54.631Z,107.47
2019-02-21T07:11:22.135Z,112.77
2019-02-21T07:13:49.652Z,96.90
2019-02-21T07:16:17.568Z,89.87
2019-02-21T07:18:45.072Z,90.77
2019-02-21T07:21:13.392Z,101.87
2019-02-21T07:23:43.698Z,104.63
2019-02-21T07:26:13.337Z,115.93
2019-02-21T07:28:41.769Z,100.40
2019-02-21T07:31:09.690Z,103.10
2019-02-21T07:33:37.586Z,101.17
2019-02-21T07:36:05.212Z,94.93
2019-02-21T07:38:34.363Z,99.23
2019-02-21T07:41:03.446Z,100.03
2019-02-21T07:43:31.122Z,96.10
2019-02-21T07:45:58.756Z,93.40
2019-02-21T07:51:54.053Z,93.50
2019-02-21T07:57:20.502Z,91.50
2019-02-21T07:59:48.505Z,88.40
2019-02-21T08:02:23.297Z,83.10
2019-02-21T08:04:53.151Z,85.70
2019-02-21T08:07:21.193Z,87.10
2019-02-21T08:09:49.117Z,84.80
2019-02-21T08:12:16.726Z,89.73
2019-02-21T08:14:44.236Z,86.67
2019-02-21T08:17:11.867Z,90.47
2019-02-21T08:19:39.468Z,77.87
2019-02-21T08:22:07.018Z,81.13
2019-02-21T08:24:34.616Z,80.00
2019-02-21T08:27:02.830Z,77.13
2019-02-21T08:29:30.422Z,71.83
2019-02-21T08:31:58.042Z,67.27
2019-02-21T08:34:51.569Z,71.70
2019-02-21T08:37:19.084Z,71.67
2019-02-21T08:39:46.903Z,68.30
2019-02-21T08:42:14.542Z,62.97
2019-02-21T08:44:42.430Z,72.77
2019-02-21T08:47:10.286Z,69.57
2019-02-21T08:49:37.873Z,59.70
2019-02-21T08:52:05.547Z,60.70
2019-02-21T08:54:33.126Z,67.90
2019-02-21T08:57:00.876Z,61.53
2019-02-21T08:59:28.856Z,61.63
2019-02-21T09:02:25.410Z,67.97
2019-02-21T09:04:53.404Z,60.80
2019-02-21T09:07:21.002Z,61.73
2019-02-21T09:09:48.694Z,54.13
2019-02-21T09:12:16.188Z,49.87
2019-02-21T09:14:43.803Z,46.90
2019-02-21T09:17:11.747Z,49.57
2019-02-21T09:19:39.691Z,50.97
2019-02-21T09:22:07.377Z,49.57
2019-02-21T09:24:40.013Z,44.33
2019-02-21T09:27:04.595Z,47.30
2019-02-21T09:29:32.593Z,49.07
2019-02-21T09:32:00.184Z,49.07
2019-02-21T09:34:29.098Z,48.43
2019-02-21T09:36:56.694Z,54.17
2019-02-21T09:39:24.607Z,43.40
2019-02-21T09:41:52.533Z,50.67
2019-02-21T09:44:20.060Z,46.47
2019-02-21T09:46:48.016Z,43.50
2019-02-21T09:49:17.087Z,39.63
2019-02-21T09:51:44.701Z,39.57
2019-02-21T09:54:12.230Z,32.67
2019-02-21T09:56:40.243Z,33.53
2019-02-21T09:59:07.851Z,35.00
2019-02-21T10:01:35.496Z,29.03
2019-02-21T10:04:03.100Z,28.67
2019-02-21T10:06:30.750Z,29.27
2019-02-21T10:08:58.350Z,28.30
2019-02-21T10:11:26.306Z,29.40
2019-02-21T10:13:54.647Z,31.40
2019-02-21T10:16:22.626Z,32.23
2019-02-21T10:18:50.323Z,29.90
2019-02-21T10:21:18.284Z,29.13
2019-02-21T10:23:45.876Z,28.83
2019-02-21T10:26:14.554Z,26.37
2019-02-21T10:28:42.149Z,28.33
2019-02-21T10:31:09.767Z,28.10
2019-02-21T10:33:46.524Z,27.13
2019-02-21T10:36:07.023Z,30.50
2019-02-21T10:38:34.651Z,32.77
2019-02-21T10:41:02.471Z,33.77
2019-02-21T10:43:30.084Z,30.20
2019-02-21T10:45:58.075Z,38.20
2019-02-21T10:48:25.761Z,28.50
2019-02-21T10:50:53.376Z,27.48
2019-02-21T10:53:21.343Z,29.93
2019-02-21T10:55:49.264Z,24.63
2019-02-21T10:58:17.198Z,21.70
2019-02-21T11:00:44.862Z,21.37
2019-02-21T11:03:12.473Z,19.43
2019-02-21T11:05:40.103Z,18.60
2019-02-21T11:08:07.714Z,19.13
2019-02-21T11:10:35.546Z,17.03
2019-02-21T11:13:03.149Z,18.87
2019-02-21T11:15:31.059Z,15.53
2019-02-21T11:17:58.613Z,16.07
2019-02-21T11:20:26.233Z,17.03
2019-02-21T11:22:53.854Z,16.17
2019-02-21T11:25:21.655Z,15.43
2019-02-21T11:27:49.731Z,16.20
2019-02-21T11:30:17.923Z,15.07
2019-02-21T11:32:45.895Z,16.97
2019-02-21T11:35:13.618Z,14.30
2019-02-21T11:37:44.387Z,12.37
2019-02-21T11:40:11.277Z,13.57
2019-02-21T11:42:40.325Z,11.50
2019-02-21T11:45:09.322Z,13.17
2019-02-21T11:47:36.986Z,12.20
2019-02-21T11:50:04.710Z,12.00
2019-02-21T11:52:32.614Z,12.03
2019-02-21T11:55:00.401Z,10.70
2019-02-21T11:57:28.376Z,11.23
2019-02-21T11:59:55.966Z,10.30
2019-02-21T12:02:23.528Z,12.97
2019-02-21T12:04:51.343Z,10.83
2019-02-21T12:07:19.295Z,10.90
2019-02-21T12:09:46.923Z,10.00
2019-02-21T12:12:14.833Z,8.90
2019-02-21T12:14:42.462Z,9.57
2019-02-21T12:17:10.404Z,11.17
2019-02-21T12:19:38.340Z,8.73
2019-02-21T12:22:06.256Z,7.60
2019-02-21T12:24:33.902Z,6.63
2019-02-21T12:27:02.041Z,10.70
2019-02-21T12:29:29.633Z,9.83
2019-02-21T12:31:57.377Z,7.53
2019-02-21T12:34:25.070Z,7.30
2019-02-21T12:36:52.667Z,5.57
2019-02-21T12:39:20.233Z,7.03
2019-02-21T12:41:47.845Z,6.97
2019-02-21T12:44:15.445Z,8.18
2019-02-21T12:46:45.578Z,14.98
2019-02-21T12:49:12.478Z,9.03
2019-02-21T12:51:40.076Z,6.67
2019-02-21T12:54:08.029Z,8.53
2019-02-21T12:56:35.635Z,9.58
2019-02-21T12:59:03.379Z,9.40
2019-02-21T13:01:31.020Z,11.33
2019-02-21T13:03:59.016Z,8.53
2019-02-21T13:06:26.889Z,8.07
2019-02-21T13:08:54.497Z,9.93
2019-02-21T13:11:22.000Z,7.55
2019-02-21T13:13:49.595Z,7.33
2019-02-21T13:16:17.201Z,10.67
2019-02-21T13:18:45.157Z,8.43
2019-02-21T13:21:12.742Z,7.60
2019-02-21T13:23:42.763Z,7.10
2019-02-21T13:26:11.848Z,7.50
2019-02-21T13:28:39.463Z,7.97
2019-02-21T13:31:07.083Z,8.97
2019-02-21T13:33:34.969Z,11.03
2019-02-21T13:36:26.010Z,8.77
2019-02-21T13:38:53.671Z,10.63
2019-02-21T13:41:21.281Z,11.13
2019-02-21T13:43:49.231Z,13.87
2019-02-21T13:46:16.960Z,11.40
2019-02-21T13:48:44.652Z,13.10
2019-02-21T13:51:12.407Z,10.13
2019-02-21T13:53:40.577Z,9.90
2019-02-21T13:56:09.173Z,11.30
2019-02-21T13:58:36.790Z,10.93
2019-02-21T14:01:04.476Z,11.27
2019-02-21T14:03:32.071Z,10.83
2019-02-21T14:06:03.606Z,10.00
2019-02-21T14:08:29.331Z,10.13
2019-02-21T14:10:57.221Z,11.57
2019-02-21T14:13:24.818Z,11.93
2019-02-21T14:15:52.551Z,13.17
2019-02-21T14:18:20.884Z,12.23
2019-02-21T14:20:48.475Z,12.80
2019-02-21T14:23:16.135Z,11.40
2019-02-21T14:25:43.697Z,15.32
2019-02-21T14:28:11.425Z,15.17
2019-02-21T14:30:39.107Z,12.17
2019-02-21T14:33:06.583Z,11.17
2019-02-21T14:35:34.411Z,13.53
2019-02-21T14:38:01.971Z,15.60
2019-02-21T14:40:29.835Z,13.08
2019-02-21T14:42:57.301Z,13.57
2019-02-21T14:45:25.122Z,14.67
2019-02-21T14:47:52.718Z,12.98
2019-02-21T14:50:20.282Z,14.20
2019-02-21T14:52:48.060Z,12.23
2019-02-21T14:55:15.997Z,12.87
2019-02-21T14:57:43.569Z,14.73
2019-02-21T15:00:19.340Z,14.75
2019-02-21T15:02:47.397Z,13.87
2019-02-21T15:05:14.983Z,14.63
2019-02-21T15:07:42.913Z,15.10
2019-02-21T15:10:10.986Z,16.30
2019-02-21T15:12:38.829Z,12.93
2019-02-21T15:15:07.173Z,13.03
2019-02-21T15:17:34.752Z,13.40
2019-02-21T15:20:02.558Z,16.60
2019-02-21T15:22:30.673Z,14.87
2019-02-21T15:24:58.222Z,18.43
2019-02-21T15:27:26.063Z,19.63
2019-02-21T15:29:53.632Z,15.63
2019-02-21T15:32:21.211Z,19.60
2019-02-21T15:34:53.193Z,15.87
2019-02-21T15:37:20.794Z,16.20
2019-02-21T15:39:48.235Z,17.63
2019-02-21T15:42:15.944Z,16.10
2019-02-21T15:44:44.222Z,16.33
2019-02-21T15:47:12.154Z,15.27
2019-02-21T15:49:39.742Z,12.73
2019-02-21T15:52:08.225Z,18.52
2019-02-21T15:54:35.730Z,14.20
2019-02-21T15:57:03.290Z,14.73
2019-02-21T15:59:31.253Z,16.50
2019-02-21T16:01:59.143Z,13.27
2019-02-21T16:04:27.028Z,14.33
2019-02-21T16:06:54.798Z,14.33
2019-02-21T16:09:25.169Z,13.33
2019-02-21T16:11:51.888Z,17.10
2019-02-21T16:14:19.425Z,14.17
2019-02-21T16:16:47.059Z,16.63
2019-02-21T16:19:14.599Z,13.10
2019-02-21T16:21:42.201Z,10.33
2019-02-21T16:24:09.728Z,23.30
2019-02-21T16:26:37.372Z,26.03
2019-02-21T16:29:05.464Z,26.17
2019-02-21T16:31:33.084Z,29.13
2019-02-21T16:34:00.789Z,28.90
2019-02-21T16:36:28.333Z,31.47
2019-02-21T16:38:56.932Z,33.70
2019-02-21T16:41:24.554Z,32.00
2019-02-21T16:43:52.192Z,30.97
2019-02-21T16:46:20.543Z,32.80
2019-02-21T16:48:48.495Z,33.07
2019-02-21T16:51:16.088Z,35.33
2019-02-21T16:53:44.026Z,35.10
2019-02-21T16:56:13.437Z,32.63
2019-02-21T16:58:42.877Z,35.47
2019-02-21T17:01:10.762Z,34.17
2019-02-21T17:03:38.383Z,36.37
2019-02-21T17:06:06.436Z,34.53
2019-02-21T17:08:35.182Z,38.73
2019-02-21T17:11:03.313Z,35.97
2019-02-21T17:13:30.946Z,36.00
2019-02-21T17:16:01.511Z,35.07
2019-02-21T17:18:29.320Z,41.77
2019-02-21T17:20:57.011Z,40.23
2019-02-21T17:23:24.948Z,39.90
2019-02-21T17:25:52.872Z,35.07
2019-02-21T17:28:21.504Z,39.77
2019-02-21T17:30:49.118Z,38.60
2019-02-21T17:33:16.751Z,38.17
2019-02-21T17:35:44.688Z,43.10
2019-02-21T17:38:14.390Z,38.03
2019-02-21T17:40:41.722Z,41.43
2019-02-21T17:43:09.790Z,47.13
2019-02-21T17:45:37.625Z,47.70
2019-02-21T17:48:05.554Z,40.33
2019-02-21T17:50:33.582Z,41.70
2019-02-21T17:53:01.248Z,46.60
2019-02-21T17:55:29.254Z,44.63
2019-02-21T17:57:56.867Z,47.20
2019-02-21T18:00:28.945Z,50.50
2019-02-21T18:02:56.571Z,48.27
2019-02-21T18:05:24.316Z,51.80
2019-02-21T18:07:51.984Z,44.80
2019-02-21T18:10:19.870Z,46.27
2019-02-21T18:12:47.541Z,46.30
2019-02-21T18:15:15.155Z,58.10
2019-02-21T18:17:43.291Z,47.87
2019-02-21T18:20:11.868Z,53.63
2019-02-21T18:22:39.845Z,58.23
2019-02-21T18:25:09.732Z,55.90
2019-02-21T18:27:37.385Z,53.10
2019-02-21T18:30:05.591Z,49.23
2019-02-21T18:32:33.542Z,56.43
2019-02-21T18:35:01.158Z,54.13
2019-02-21T18:37:29.196Z,53.87
2019-02-21T18:39:56.792Z,55.90
2019-02-21T18:42:25.094Z,55.57
2019-02-21T18:44:53.368Z,55.87
2019-02-21T18:47:22.254Z,59.43
2019-02-21T18:49:49.878Z,58.87
2019-02-21T18:52:17.585Z,60.87
2019-02-21T18:54:45.134Z,54.70
2019-02-21T18:57:13.088Z,59.20
2019-02-21T18:59:40.707Z,57.13
2019-02-21T19:02:08.713Z,70.13
2019-02-21T19:04:36.295Z,59.93
2019-02-21T19:07:04.207Z,62.27
2019-02-21T19:09:32.163Z,66.43
2019-02-21T19:12:00.725Z,65.40
2019-02-21T19:14:28.434Z,64.57
2019-02-21T19:16:56.442Z,75.07
2019-02-21T19:19:24.038Z,72.00
2019-02-21T19:21:51.683Z,76.50
2019-02-21T19:24:19.329Z,76.43
2019-02-21T19:26:46.993Z,76.60
2019-02-21T19:29:14.977Z,80.07
2019-02-21T19:31:42.902Z,77.33
2019-02-21T19:34:10.518Z,78.07
2019-02-21T19:36:38.279Z,84.90
2019-02-21T19:39:06.707Z,77.77
2019-02-21T19:41:34.221Z,73.53
2019-02-21T19:44:08.782Z,76.67
2019-02-21T19:46:31.397Z,76.87
2019-02-21T19:48:59.063Z,83.27
2019-02-21T19:51:27.047Z,85.60
2019-02-21T19:53:54.638Z,94.07
2019-02-21T19:56:22.302Z,88.80
2019-02-21T19:58:49.907Z,91.27
2019-02-21T20:01:17.625Z,101.90
2019-02-21T20:03:45.643Z,95.40
2019-02-21T20:06:13.291Z,110.87
2019-02-21T20:08:41.194Z,107.40
2019-02-21T20:11:08.827Z,99.97
2019-02-21T20:13:36.557Z,112.00
2019-02-21T20:16:04.194Z,116.67
2019-02-21T20:18:31.834Z,112.80
2019-02-21T20:20:59.585Z,109.10
2019-02-21T20:23:27.231Z,117.03
2019-02-21T20:25:54.859Z,113.33
2019-02-21T20:28:22.493Z,115.87
2019-02-21T20:30:50.059Z,119.93
2019-02-21T20:33:17.648Z,112.60
2019-02-21T20:35:45.286Z,118.53
2019-02-21T20:38:12.893Z,116.87
2019-02-21T20:40:40.826Z,113.27
2019-02-21T20:43:08.594Z,117.07
2019-02-21T20:45:36.527Z,118.30
2019-02-21T20:48:04.157Z,121.40
2019-02-21T20:50:31.822Z,130.33
2019-02-21T20:52:59.419Z,128.00
2019-02-21T20:55:27.343Z,125.10
2019-02-21T20:57:54.944Z,113.77
2019-02-21T21:00:22.883Z,118.73
2019-02-21T21:02:50.827Z,108.93
2019-02-21T21:05:18.440Z,111.57
2019-02-21T21:07:46.490Z,106.73
2019-02-21T21:10:14.510Z,111.20
2019-02-21T21:12:42.793Z,107.43
2019-02-21T21:15:10.589Z,102.73
2019-02-21T21:17:38.213Z,105.40
2019-02-21T21:20:16.017Z,104.40
2019-02-21T21:22:36.460Z,108.87
2019-02-21T21:25:04.982Z,107.12
2019-02-21T21:27:33.065Z,104.83
2019-02-21T21:30:00.683Z,109.63
2019-02-21T21:32:28.334Z,120.70
2019-02-21T21:34:56.126Z,114.23
2019-02-21T21:37:23.724Z,102.83
2019-02-21T21:39:51.574Z,119.57
2019-02-21T21:42:19.191Z,115.07
2019-02-21T21:44:46.810Z,106.90
2019-02-21T21:47:14.445Z,103.60
2019-02-21T21:49:42.089Z,101.87
2019-02-21T21:52:09.697Z,104.47
2019-02-21T21:54:38.068Z,93.73
2019-02-21T21:57:05.704Z,95.47
2019-02-21T21:59:33.325Z,106.00
2019-02-21T22:02:01.537Z,94.93
2019-02-21T22:04:29.148Z,97.97
2019-02-21T22:06:56.980Z,101.23
2019-02-21T22:09:24.991Z,95.30
2019-02-21T22:11:52.647Z,100.60
2019-02-21T22:14:20.180Z,98.63
2019-02-21T22:16:47.775Z,93.30
2019-02-21T22:19:17.011Z,105.00
2019-02-21T22:21:44.511Z,99.73
2019-02-21T22:24:12.051Z,97.03
2019-02-21T22:26:39.551Z,107.03
2019-02-21T22:29:07.167Z,112.87
2019-02-21T22:31:34.727Z,120.13
2019-02-21T22:34:02.339Z,127.13
2019-02-21T22:36:29.899Z,130.67
2019-02-21T22:38:57.796Z,121.87
2019-02-21T22:41:28.067Z,133.17
2019-02-21T22:43:56.353Z,131.17
2019-02-21T22:46:24.254Z,125.40
2019-02-21T22:48:51.822Z,121.07
2019-02-21T22:51:19.294Z,121.53
2019-02-21T22:53:46.887Z,131.17
2019-02-21T22:56:14.492Z,125.67
2019-02-21T22:58:45.003Z,115.83
2019-02-21T23:01:19.871Z,117.90
2019-02-21T23:03:52.459Z,129.27
2019-02-21T23:06:40.182Z,122.20
2019-02-21T23:09:13.297Z,122.23
2019-02-21T23:11:40.986Z,126.03
2019-02-21T23:14:08.886Z,130.03
2019-02-21T23:16:36.655Z,135.90
2019-02-21T23:19:04.200Z,131.03
2019-02-21T23:21:31.972Z,134.13
2019-02-21T23:23:59.732Z,143.17
2019-02-21T23:26:33.945Z,149.90
2019-02-21T23:29:01.505Z,167.10
2019-02-21T23:31:30.314Z,180.83
2019-02-21T23:33:59.053Z,178.67
2019-02-21T23:36:26.647Z,187.47
2019-02-21T23:38:54.200Z,187.23
2019-02-21T23:41:21.695Z,180.60
2019-02-21T23:43:49.218Z,183.70
2019-02-21T23:46:16.802Z,178.33
2019-02-21T23:48:44.330Z,202.07
2019-02-21T23:51:11.924Z,218.70
2019-02-21T23:53:39.854Z,213.83
2019-02-21T23:56:07.353Z,209.37
2019-02-21T23:58:34.909Z,226.87
